sensor_id;sensor_type;location;lat;lon;timestamp;pressure;altitude;pressure_sealevel;temperature;humidity
8637;BME280;4356;49.068;8.658;2023-04-10T00:00:59;100513.97;;;18.48;34.80
8637;BME280;4356;49.068;8.658;2023-04-10T00:03:26;100510.84;;;18.51;35.10
8637;BME280;4356;49.068;8.658;2023-04-10T00:05:53;100510.44;;;18.48;34.89
8637;BME280;4356;49.068;8.658;2023-04-10T00:08:23;100505.81;;;18.48;35.20
8637;BME280;4356;49.068;8.658;2023-04-10T00:10:48;100506.88;;;18.47;34.93
8637;BME280;4356;49.068;8.658;2023-04-10T00:13:15;100497.84;;;18.46;35.16
8637;BME280;4356;49.068;8.658;2023-04-10T00:15:41;100505.19;;;18.46;35.13
8637;BME280;4356;49.068;8.658;2023-04-10T00:18:06;100488.41;;;18.42;34.94
8637;BME280;4356;49.068;8.658;2023-04-10T00:20:32;100496.41;;;18.44;35.03
8637;BME280;4356;49.068;8.658;2023-04-10T00:22:58;100482.16;;;18.42;34.76
8637;BME280;4356;49.068;8.658;2023-04-10T00:25:23;100473.09;;;18.28;34.92
8637;BME280;4356;49.068;8.658;2023-04-10T00:27:51;100481.91;;;18.37;35.15
8637;BME280;4356;49.068;8.658;2023-04-10T00:30:16;100491.97;;;18.36;35.26
8637;BME280;4356;49.068;8.658;2023-04-10T00:32:42;100486.09;;;18.33;35.32
8637;BME280;4356;49.068;8.658;2023-04-10T00:35:08;100487.75;;;18.34;35.18
8637;BME280;4356;49.068;8.658;2023-04-10T00:37:34;100485.25;;;18.32;35.08
8637;BME280;4356;49.068;8.658;2023-04-10T00:40:00;100489.41;;;18.28;35.06
8637;BME280;4356;49.068;8.658;2023-04-10T00:42:25;100499.91;;;18.31;34.98
8637;BME280;4356;49.068;8.658;2023-04-10T00:44:51;100498.44;;;18.29;34.94
8637;BME280;4356;49.068;8.658;2023-04-10T00:47:17;100505.53;;;18.30;34.94
8637;BME280;4356;49.068;8.658;2023-04-10T00:49:43;100491.50;;;18.26;35.03
8637;BME280;4356;49.068;8.658;2023-04-10T00:52:09;100498.00;;;18.25;34.88
8637;BME280;4356;49.068;8.658;2023-04-10T00:54:36;100492.56;;;18.25;34.95
8637;BME280;4356;49.068;8.658;2023-04-10T00:57:02;100495.69;;;18.22;35.05
8637;BME280;4356;49.068;8.658;2023-04-10T00:59:29;100498.44;;;18.22;35.24
8637;BME280;4356;49.068;8.658;2023-04-10T01:01:56;100499.25;;;18.23;35.37
8637;BME280;4356;49.068;8.658;2023-04-10T01:04:22;100494.00;;;18.21;34.99
8637;BME280;4356;49.068;8.658;2023-04-10T01:15:20;100502.97;;;18.15;35.40
8637;BME280;4356;49.068;8.658;2023-04-10T01:17:56;100497.97;;;18.12;35.33
8637;BME280;4356;49.068;8.658;2023-04-10T01:20:28;100490.00;;;18.11;35.36
8637;BME280;4356;49.068;8.658;2023-04-10T01:25:55;100485.81;;;18.08;35.16
8637;BME280;4356;49.068;8.658;2023-04-10T01:31:10;100498.97;;;18.05;35.35
8637;BME280;4356;49.068;8.658;2023-04-10T01:33:43;100498.16;;;18.04;35.45
8637;BME280;4356;49.068;8.658;2023-04-10T01:36:12;100496.47;;;18.03;35.22
8637;BME280;4356;49.068;8.658;2023-04-10T01:38:43;100496.69;;;18.02;35.25
8637;BME280;4356;49.068;8.658;2023-04-10T01:41:09;100495.19;;;17.99;35.43
8637;BME280;4356;49.068;8.658;2023-04-10T01:43:39;100505.06;;;18.00;35.58
8637;BME280;4356;49.068;8.658;2023-04-10T01:46:06;100505.25;;;17.99;35.26
8637;BME280;4356;49.068;8.658;2023-04-10T01:48:31;100502.72;;;17.97;35.31
8637;BME280;4356;49.068;8.658;2023-04-10T01:51:01;100509.00;;;17.98;35.55
8637;BME280;4356;49.068;8.658;2023-04-10T01:53:29;100508.38;;;17.96;35.35
8637;BME280;4356;49.068;8.658;2023-04-10T01:55:56;100502.94;;;17.96;35.51
8637;BME280;4356;49.068;8.658;2023-04-10T01:58:22;100506.91;;;17.93;35.48
8637;BME280;4356;49.068;8.658;2023-04-10T02:00:47;100502.91;;;17.89;35.04
8637;BME280;4356;49.068;8.658;2023-04-10T02:03:13;100501.84;;;17.90;35.54
8637;BME280;4356;49.068;8.658;2023-04-10T02:08:32;100516.09;;;17.92;35.57
8637;BME280;4356;49.068;8.658;2023-04-10T02:11:43;100508.34;;;17.89;35.35
8637;BME280;4356;49.068;8.658;2023-04-10T02:14:15;100512.31;;;17.87;35.30
8637;BME280;4356;49.068;8.658;2023-04-10T02:16:42;100514.38;;;17.85;35.41
8637;BME280;4356;49.068;8.658;2023-04-10T02:19:09;100510.00;;;17.84;35.18
8637;BME280;4356;49.068;8.658;2023-04-10T02:21:36;100503.28;;;17.80;35.40
8637;BME280;4356;49.068;8.658;2023-04-10T02:24:02;100499.72;;;17.79;35.46
8637;BME280;4356;49.068;8.658;2023-04-10T02:26:28;100500.56;;;17.80;35.28
8637;BME280;4356;49.068;8.658;2023-04-10T02:28:53;100485.06;;;17.74;35.54
8637;BME280;4356;49.068;8.658;2023-04-10T02:31:20;100491.13;;;17.76;35.24
8637;BME280;4356;49.068;8.658;2023-04-10T02:33:45;100486.97;;;17.73;35.36
8637;BME280;4356;49.068;8.658;2023-04-10T02:36:11;100486.75;;;17.75;35.29
8637;BME280;4356;49.068;8.658;2023-04-10T02:38:38;100488.63;;;17.74;35.34
8637;BME280;4356;49.068;8.658;2023-04-10T02:41:04;100486.31;;;17.71;35.32
8637;BME280;4356;49.068;8.658;2023-04-10T02:43:29;100490.91;;;17.71;35.57
8637;BME280;4356;49.068;8.658;2023-04-10T02:45:55;100492.78;;;17.70;35.44
8637;BME280;4356;49.068;8.658;2023-04-10T02:48:21;100474.53;;;17.58;35.43
8637;BME280;4356;49.068;8.658;2023-04-10T02:50:47;100490.28;;;17.69;35.32
8637;BME280;4356;49.068;8.658;2023-04-10T02:53:14;100489.47;;;17.68;35.30
8637;BME280;4356;49.068;8.658;2023-04-10T02:55:40;100466.78;;;17.55;35.73
8637;BME280;4356;49.068;8.658;2023-04-10T02:58:06;100483.13;;;17.61;35.59
8637;BME280;4356;49.068;8.658;2023-04-10T03:00:32;100483.75;;;17.63;35.64
8637;BME280;4356;49.068;8.658;2023-04-10T03:02:57;100489.19;;;17.63;35.67
8637;BME280;4356;49.068;8.658;2023-04-10T03:05:23;100489.41;;;17.62;35.68
8637;BME280;4356;49.068;8.658;2023-04-10T03:07:48;100479.38;;;17.62;35.52
8637;BME280;4356;49.068;8.658;2023-04-10T03:10:14;100479.78;;;17.59;35.36
8637;BME280;4356;49.068;8.658;2023-04-10T03:12:40;100477.47;;;17.56;35.52
8637;BME280;4356;49.068;8.658;2023-04-10T03:15:06;100480.19;;;17.56;35.56
8637;BME280;4356;49.068;8.658;2023-04-10T03:17:32;100478.53;;;17.55;35.21
8637;BME280;4356;49.068;8.658;2023-04-10T03:19:57;100467.22;;;17.52;35.42
8637;BME280;4356;49.068;8.658;2023-04-10T03:22:23;100470.16;;;17.57;35.64
8637;BME280;4356;49.068;8.658;2023-04-10T03:24:48;100460.72;;;17.53;35.62
8637;BME280;4356;49.068;8.658;2023-04-10T03:27:16;100474.75;;;17.56;35.60
8637;BME280;4356;49.068;8.658;2023-04-10T03:29:42;100461.78;;;17.52;35.62
8637;BME280;4356;49.068;8.658;2023-04-10T03:32:08;100471.81;;;17.51;35.59
8637;BME280;4356;49.068;8.658;2023-04-10T03:34:33;100466.38;;;17.51;35.54
8637;BME280;4356;49.068;8.658;2023-04-10T03:36:59;100456.13;;;17.53;35.38
8637;BME280;4356;49.068;8.658;2023-04-10T03:39:25;100436.88;;;17.48;35.78
8637;BME280;4356;49.068;8.658;2023-04-10T03:41:50;100449.00;;;17.52;35.31
8637;BME280;4356;49.068;8.658;2023-04-10T03:44:16;100433.50;;;17.46;35.43
8637;BME280;4356;49.068;8.658;2023-04-10T03:46:42;100442.97;;;17.50;35.16
8637;BME280;4356;49.068;8.658;2023-04-10T03:49:08;100418.22;;;17.45;35.63
8637;BME280;4356;49.068;8.658;2023-04-10T03:51:33;100425.81;;;17.50;35.65
8637;BME280;4356;49.068;8.658;2023-04-10T03:53:59;100422.47;;;17.48;35.30
8637;BME280;4356;49.068;8.658;2023-04-10T03:56:24;100408.03;;;17.47;35.53
8637;BME280;4356;49.068;8.658;2023-04-10T03:58:50;100419.06;;;17.45;35.35
8637;BME280;4356;49.068;8.658;2023-04-10T04:01:16;100413.19;;;17.42;35.33
8637;BME280;4356;49.068;8.658;2023-04-10T04:03:41;100424.97;;;17.49;35.29
8637;BME280;4356;49.068;8.658;2023-04-10T04:06:07;100414.88;;;17.43;35.39
8637;BME280;4356;49.068;8.658;2023-04-10T04:08:33;100411.75;;;17.46;35.30
8637;BME280;4356;49.068;8.658;2023-04-10T04:11:00;100420.94;;;17.45;35.27
8637;BME280;4356;49.068;8.658;2023-04-10T04:13:26;100408.41;;;17.44;35.28
8637;BME280;4356;49.068;8.658;2023-04-10T04:15:52;100391.88;;;17.39;35.63
8637;BME280;4356;49.068;8.658;2023-04-10T04:18:17;100406.72;;;17.43;35.35
8637;BME280;4356;49.068;8.658;2023-04-10T04:20:43;100416.56;;;17.44;35.50
8637;BME280;4356;49.068;8.658;2023-04-10T04:23:08;100415.91;;;17.42;35.58
8637;BME280;4356;49.068;8.658;2023-04-10T04:25:34;100415.28;;;17.40;35.29
8637;BME280;4356;49.068;8.658;2023-04-10T04:28:00;100407.13;;;17.40;35.51
8637;BME280;4356;49.068;8.658;2023-04-10T04:30:25;100411.91;;;17.38;35.29
8637;BME280;4356;49.068;8.658;2023-04-10T04:32:51;100414.84;;;17.36;35.48
8637;BME280;4356;49.068;8.658;2023-04-10T04:35:17;100425.13;;;17.41;35.45
8637;BME280;4356;49.068;8.658;2023-04-10T04:37:42;100426.16;;;17.40;35.14
8637;BME280;4356;49.068;8.658;2023-04-10T04:40:08;100432.22;;;17.42;35.42
8637;BME280;4356;49.068;8.658;2023-04-10T04:42:34;100433.44;;;17.39;35.58
8637;BME280;4356;49.068;8.658;2023-04-10T04:45:00;100437.66;;;17.42;35.31
8637;BME280;4356;49.068;8.658;2023-04-10T04:47:25;100438.06;;;17.39;35.49
8637;BME280;4356;49.068;8.658;2023-04-10T04:49:51;100438.06;;;17.39;35.68
8637;BME280;4356;49.068;8.658;2023-04-10T04:52:16;100433.44;;;17.39;35.38
8637;BME280;4356;49.068;8.658;2023-04-10T04:54:42;100431.56;;;17.33;35.15
8637;BME280;4356;49.068;8.658;2023-04-10T04:57:07;100446.84;;;17.41;35.37
8637;BME280;4356;49.068;8.658;2023-04-10T04:59:34;100440.97;;;17.37;35.43
8637;BME280;4356;49.068;8.658;2023-04-10T05:01:59;100440.56;;;17.40;35.22
8637;BME280;4356;49.068;8.658;2023-04-10T05:04:25;100447.03;;;17.39;35.28
8637;BME280;4356;49.068;8.658;2023-04-10T05:06:51;100426.50;;;17.30;35.51
8637;BME280;4356;49.068;8.658;2023-04-10T05:09:16;100443.72;;;17.44;35.14
8637;BME280;4356;49.068;8.658;2023-04-10T05:11:42;100440.38;;;17.42;35.36
8637;BME280;4356;49.068;8.658;2023-04-10T05:14:08;100407.47;;;17.24;35.22
8637;BME280;4356;49.068;8.658;2023-04-10T05:16:35;100417.56;;;17.36;35.28
8637;BME280;4356;49.068;8.658;2023-04-10T05:19:00;100418.63;;;17.35;35.33
8637;BME280;4356;49.068;8.658;2023-04-10T05:21:26;100432.47;;;17.47;35.39
8637;BME280;4356;49.068;8.658;2023-04-10T05:23:51;100432.09;;;17.50;34.92
8637;BME280;4356;49.068;8.658;2023-04-10T05:26:17;100433.13;;;17.49;35.27
8637;BME280;4356;49.068;8.658;2023-04-10T05:28:43;100436.25;;;17.53;35.32
8637;BME280;4356;49.068;8.658;2023-04-10T05:31:08;100442.97;;;17.57;35.26
8637;BME280;4356;49.068;8.658;2023-04-10T05:33:34;100441.94;;;17.58;34.94
8637;BME280;4356;49.068;8.658;2023-04-10T05:35:59;100441.94;;;17.58;34.99
8637;BME280;4356;49.068;8.658;2023-04-10T05:38:25;100433.13;;;17.56;35.29
8637;BME280;4356;49.068;8.658;2023-04-10T05:40:51;100437.75;;;17.62;34.88
8637;BME280;4356;49.068;8.658;2023-04-10T05:43:16;100426.44;;;17.52;34.97
8637;BME280;4356;49.068;8.658;2023-04-10T05:45:43;100440.28;;;17.63;35.00
8637;BME280;4356;49.068;8.658;2023-04-10T05:48:09;100438.19;;;17.65;35.23
8637;BME280;4356;49.068;8.658;2023-04-10T05:50:35;100408.25;;;17.52;34.92
8637;BME280;4356;49.068;8.658;2023-04-10T05:53:01;100422.50;;;17.61;35.01
8637;BME280;4356;49.068;8.658;2023-04-10T05:55:29;100435.09;;;17.68;35.05
8637;BME280;4356;49.068;8.658;2023-04-10T05:57:55;100422.50;;;17.61;35.08
8637;BME280;4356;49.068;8.658;2023-04-10T06:00:21;100433.19;;;17.62;34.89
8637;BME280;4356;49.068;8.658;2023-04-10T06:02:46;100426.69;;;17.63;34.97
8637;BME280;4356;49.068;8.658;2023-04-10T06:05:12;100440.53;;;17.75;34.76
8637;BME280;4356;49.068;8.658;2023-04-10T06:07:37;100437.59;;;17.76;34.73
8637;BME280;4356;49.068;8.658;2023-04-10T06:10:03;100445.56;;;17.78;35.08
8637;BME280;4356;49.068;8.658;2023-04-10T06:12:29;100434.69;;;17.78;35.03
8637;BME280;4356;49.068;8.658;2023-04-10T06:14:55;100434.69;;;17.78;35.01
8637;BME280;4356;49.068;8.658;2023-04-10T06:17:20;100436.59;;;17.84;34.86
8637;BME280;4356;49.068;8.658;2023-04-10T06:19:48;100435.97;;;17.82;34.73
8637;BME280;4356;49.068;8.658;2023-04-10T06:22:13;100438.91;;;17.87;34.82
8637;BME280;4356;49.068;8.658;2023-04-10T06:24:39;100432.81;;;17.85;34.89
8637;BME280;4356;49.068;8.658;2023-04-10T06:27:05;100431.38;;;17.89;34.93
8637;BME280;4356;49.068;8.658;2023-04-10T06:29:30;100432.22;;;17.89;34.72
8637;BME280;4356;49.068;8.658;2023-04-10T06:31:56;100424.69;;;17.91;34.73
8637;BME280;4356;49.068;8.658;2023-04-10T06:34:22;100421.75;;;17.93;34.85
8637;BME280;4356;49.068;8.658;2023-04-10T06:36:47;100419.25;;;17.91;34.75
8637;BME280;4356;49.068;8.658;2023-04-10T06:39:13;100433.91;;;17.97;34.73
8637;BME280;4356;49.068;8.658;2023-04-10T06:41:38;100432.84;;;17.98;34.73
8637;BME280;4356;49.068;8.658;2023-04-10T06:44:04;100425.75;;;17.97;34.57
8637;BME280;4356;49.068;8.658;2023-04-10T06:46:29;100432.25;;;18.02;34.63
8637;BME280;4356;49.068;8.658;2023-04-10T06:48:55;100426.59;;;18.04;34.65
8637;BME280;4356;49.068;8.658;2023-04-10T06:51:21;100425.13;;;18.01;34.64
8637;BME280;4356;49.068;8.658;2023-04-10T06:53:46;100430.59;;;18.08;34.71
8637;BME280;4356;49.068;8.658;2023-04-10T06:56:12;100427.03;;;18.07;34.65
8637;BME280;4356;49.068;8.658;2023-04-10T06:58:37;100425.78;;;18.10;34.68
8637;BME280;4356;49.068;8.658;2023-04-10T07:01:03;100429.97;;;18.12;34.56
8637;BME280;4356;49.068;8.658;2023-04-10T07:03:30;100425.38;;;18.13;34.30
8637;BME280;4356;49.068;8.658;2023-04-10T07:05:57;100415.50;;;18.05;34.48
8637;BME280;4356;49.068;8.658;2023-04-10T07:08:23;100431.00;;;18.18;34.67
8637;BME280;4356;49.068;8.658;2023-04-10T07:10:48;100431.22;;;18.16;34.39
8637;BME280;4356;49.068;8.658;2023-04-10T07:13:14;100419.50;;;18.16;34.46
8637;BME280;4356;49.068;8.658;2023-04-10T07:15:39;100418.47;;;18.17;34.72
8637;BME280;4356;49.068;8.658;2023-04-10T07:18:05;100418.06;;;18.20;34.63
8637;BME280;4356;49.068;8.658;2023-04-10T07:20:31;100423.47;;;18.26;34.28
8637;BME280;4356;49.068;8.658;2023-04-10T07:22:56;100405.28;;;18.20;34.42
8637;BME280;4356;49.068;8.658;2023-04-10T07:25:22;100423.50;;;18.33;34.50
8637;BME280;4356;49.068;8.658;2023-04-10T07:27:47;100424.97;;;18.35;34.58
8637;BME280;4356;49.068;8.658;2023-04-10T07:30:13;100417.63;;;18.36;34.48
8637;BME280;4356;49.068;8.658;2023-04-10T07:32:39;100417.88;;;18.41;34.15
8637;BME280;4356;49.068;8.658;2023-04-10T07:35:06;100416.19;;;18.40;34.13
8637;BME280;4356;49.068;8.658;2023-04-10T07:37:32;100407.84;;;18.41;34.22
8637;BME280;4356;49.068;8.658;2023-04-10T07:39:58;100408.66;;;18.48;34.24
8637;BME280;4356;49.068;8.658;2023-04-10T07:42:24;100410.38;;;18.50;34.21
8637;BME280;4356;49.068;8.658;2023-04-10T07:44:51;100409.31;;;18.51;34.34
8637;BME280;4356;49.068;8.658;2023-04-10T07:47:16;100416.00;;;18.55;34.27
8637;BME280;4356;49.068;8.658;2023-04-10T07:49:42;100389.84;;;18.47;34.02
8637;BME280;4356;49.068;8.658;2023-04-10T07:52:07;100387.94;;;18.54;33.97
8637;BME280;4356;49.068;8.658;2023-04-10T07:54:33;100376.00;;;18.48;33.87
8637;BME280;4356;49.068;8.658;2023-04-10T07:56:59;100394.63;;;18.65;34.21
8637;BME280;4356;49.068;8.658;2023-04-10T07:59:26;100382.69;;;18.59;33.94
8637;BME280;4356;49.068;8.658;2023-04-10T08:01:51;100380.38;;;18.63;33.97
8637;BME280;4356;49.068;8.658;2023-04-10T08:04:17;100388.97;;;18.73;33.80
8637;BME280;4356;49.068;8.658;2023-04-10T08:06:43;100394.84;;;18.76;33.86
8637;BME280;4356;49.068;8.658;2023-04-10T08:09:08;100390.88;;;18.79;34.17
8637;BME280;4356;49.068;8.658;2023-04-10T08:11:34;100400.03;;;18.84;33.88
8637;BME280;4356;49.068;8.658;2023-04-10T08:14:01;100397.53;;;18.89;33.60
8637;BME280;4356;49.068;8.658;2023-04-10T08:16:29;100392.31;;;18.88;33.76
8637;BME280;4356;49.068;8.658;2023-04-10T08:18:56;100385.41;;;18.85;33.53
8637;BME280;4356;49.068;8.658;2023-04-10T08:21:23;100401.72;;;18.98;33.83
8637;BME280;4356;49.068;8.658;2023-04-10T08:23:53;100404.63;;;19.03;33.71
8637;BME280;4356;49.068;8.658;2023-04-10T08:26:18;100386.63;;;18.96;33.70
8637;BME280;4356;49.068;8.658;2023-04-10T08:28:49;100404.59;;;19.10;33.81
8637;BME280;4356;49.068;8.658;2023-04-10T08:31:19;100371.53;;;19.00;33.37
8637;BME280;4356;49.068;8.658;2023-04-10T08:33:45;100376.13;;;19.06;33.30
8637;BME280;4356;49.068;8.658;2023-04-10T08:36:12;100403.31;;;19.19;33.33
8637;BME280;4356;49.068;8.658;2023-04-10T08:38:40;100393.03;;;19.21;33.33
8637;BME280;4356;49.068;8.658;2023-04-10T08:41:12;100386.97;;;19.25;33.26
8637;BME280;4356;49.068;8.658;2023-04-10T08:43:38;100396.19;;;19.31;33.24
8637;BME280;4356;49.068;8.658;2023-04-10T08:46:04;100392.19;;;19.33;33.29
8637;BME280;4356;49.068;8.658;2023-04-10T08:49:03;100395.94;;;19.39;33.19
8637;BME280;4356;49.068;8.658;2023-04-10T08:51:45;100380.22;;;19.41;33.54
8637;BME280;4356;49.068;8.658;2023-04-10T08:54:20;100387.53;;;19.47;33.16
8637;BME280;4356;49.068;8.658;2023-04-10T08:56:53;100371.19;;;19.47;32.99
8637;BME280;4356;49.068;8.658;2023-04-10T08:59:19;100371.97;;;19.54;33.35
8637;BME280;4356;49.068;8.658;2023-04-10T09:01:45;100365.47;;;19.55;32.75
8637;BME280;4356;49.068;8.658;2023-04-10T09:04:12;100356.66;;;19.60;33.10
8637;BME280;4356;49.068;8.658;2023-04-10T09:06:38;100369.41;;;19.66;33.33
8637;BME280;4356;49.068;8.658;2023-04-10T09:09:07;100362.66;;;19.68;32.99
8637;BME280;4356;49.068;8.658;2023-04-10T09:14:23;100350.91;;;19.74;32.81
8637;BME280;4356;49.068;8.658;2023-04-10T09:16:51;100345.84;;;19.78;32.87
8637;BME280;4356;49.068;8.658;2023-04-10T09:19:30;100343.28;;;19.83;32.63
8637;BME280;4356;49.068;8.658;2023-04-10T09:21:56;100335.72;;;19.85;32.73
8637;BME280;4356;49.068;8.658;2023-04-10T09:24:25;100333.78;;;19.92;32.76
8637;BME280;4356;49.068;8.658;2023-04-10T09:26:51;100322.88;;;19.92;32.79
8637;BME280;4356;49.068;8.658;2023-04-10T09:29:17;100322.00;;;19.98;32.67
8637;BME280;4356;49.068;8.658;2023-04-10T09:31:46;100321.53;;;20.01;32.73
8637;BME280;4356;49.068;8.658;2023-04-10T09:34:19;100319.59;;;20.08;32.48
8637;BME280;4356;49.068;8.658;2023-04-10T09:36:59;100325.22;;;20.13;32.58
8637;BME280;4356;49.068;8.658;2023-04-10T09:39:38;100306.94;;;20.13;32.59
8637;BME280;4356;49.068;8.658;2023-04-10T09:42:09;100302.75;;;20.17;32.45
8637;BME280;4356;49.068;8.658;2023-04-10T09:44:40;100298.31;;;20.23;32.49
8637;BME280;4356;49.068;8.658;2023-04-10T09:47:17;100292.16;;;20.27;32.40
8637;BME280;4356;49.068;8.658;2023-04-10T09:49:51;100289.38;;;20.34;32.17
8637;BME280;4356;49.068;8.658;2023-04-10T09:52:26;100284.31;;;20.37;32.37
8637;BME280;4356;49.068;8.658;2023-04-10T09:54:56;100275.50;;;20.35;32.07
8637;BME280;4356;49.068;8.658;2023-04-10T09:57:23;100279.59;;;20.44;32.09
8637;BME280;4356;49.068;8.658;2023-04-10T09:59:54;100278.34;;;20.47;32.20
8637;BME280;4356;49.068;8.658;2023-04-10T10:02:25;100274.69;;;20.53;32.16
8637;BME280;4356;49.068;8.658;2023-04-10T10:04:52;100280.31;;;20.58;32.13
8637;BME280;4356;49.068;8.658;2023-04-10T10:07:20;100269.16;;;20.60;32.29
8637;BME280;4356;49.068;8.658;2023-04-10T10:09:48;100263.84;;;20.65;32.19
8637;BME280;4356;49.068;8.658;2023-04-10T10:12:25;100252.03;;;20.71;32.00
8637;BME280;4356;49.068;8.658;2023-04-10T10:15:20;100246.72;;;20.76;32.04
8637;BME280;4356;49.068;8.658;2023-04-10T10:20:30;100229.84;;;20.79;31.92
8637;BME280;4356;49.068;8.658;2023-04-10T10:22:57;100235.84;;;20.87;31.70
8637;BME280;4356;49.068;8.658;2023-04-10T10:25:23;100237.53;;;20.88;31.86
8637;BME280;4356;49.068;8.658;2023-04-10T10:27:50;100238.72;;;20.92;31.80
8637;BME280;4356;49.068;8.658;2023-04-10T10:30:18;100234.84;;;21.00;31.84
8637;BME280;4356;49.068;8.658;2023-04-10T10:32:45;100221.50;;;20.92;31.53
8637;BME280;4356;49.068;8.658;2023-04-10T10:35:12;100221.19;;;21.00;31.38
8637;BME280;4356;49.068;8.658;2023-04-10T10:37:38;100221.88;;;21.13;31.58
8637;BME280;4356;49.068;8.658;2023-04-10T10:40:27;100219.97;;;21.14;31.56
8637;BME280;4356;49.068;8.658;2023-04-10T10:45:49;100224.19;;;21.28;31.51
8637;BME280;4356;49.068;8.658;2023-04-10T10:48:16;100213.00;;;21.29;31.54
8637;BME280;4356;49.068;8.658;2023-04-10T10:50:56;100201.03;;;21.30;31.42
8637;BME280;4356;49.068;8.658;2023-04-10T10:53:41;100211.13;;;21.41;31.44
8637;BME280;4356;49.068;8.658;2023-04-10T10:58:55;100207.00;;;21.50;31.34
8637;BME280;4356;49.068;8.658;2023-04-10T11:01:27;100197.25;;;21.55;31.25
8637;BME280;4356;49.068;8.658;2023-04-10T11:03:53;100195.72;;;21.59;31.34
8637;BME280;4356;49.068;8.658;2023-04-10T11:06:48;100192.06;;;21.65;31.05
8637;BME280;4356;49.068;8.658;2023-04-10T11:09:53;100181.00;;;21.71;30.80
8637;BME280;4356;49.068;8.658;2023-04-10T11:12:23;100179.47;;;21.75;30.78
8637;BME280;4356;49.068;8.658;2023-04-10T11:15:00;100169.38;;;21.76;30.91
8637;BME280;4356;49.068;8.658;2023-04-10T11:17:48;100186.28;;;21.84;31.17
8637;BME280;4356;49.068;8.658;2023-04-10T11:20:19;100180.34;;;21.87;30.79
8637;BME280;4356;49.068;8.658;2023-04-10T11:23:08;100177.72;;;21.92;30.88
8637;BME280;4356;49.068;8.658;2023-04-10T11:28:34;100174.38;;;22.02;30.81
8637;BME280;4356;49.068;8.658;2023-04-10T11:31:22;100167.63;;;22.04;30.89
8637;BME280;4356;49.068;8.658;2023-04-10T11:34:08;100160.34;;;22.10;30.75
8637;BME280;4356;49.068;8.658;2023-04-10T11:36:38;100138.69;;;22.08;30.83
8637;BME280;4356;49.068;8.658;2023-04-10T11:39:09;100128.09;;;22.12;30.89
8637;BME280;4356;49.068;8.658;2023-04-10T11:41:41;100143.69;;;22.23;30.76
8637;BME280;4356;49.068;8.658;2023-04-10T11:44:15;100126.75;;;22.26;30.76
8637;BME280;4356;49.068;8.658;2023-04-10T11:46:43;100121.03;;;22.27;30.56
8637;BME280;4356;49.068;8.658;2023-04-10T11:49:16;100119.75;;;22.30;30.73
8637;BME280;4356;49.068;8.658;2023-04-10T11:51:45;100130.06;;;22.39;30.39
8637;BME280;4356;49.068;8.658;2023-04-10T11:54:16;100124.09;;;22.42;30.44
8637;BME280;4356;49.068;8.658;2023-04-10T11:57:00;100122.53;;;22.46;30.50
8637;BME280;4356;49.068;8.658;2023-04-10T11:59:27;100113.00;;;22.49;30.37
8637;BME280;4356;49.068;8.658;2023-04-10T12:02:03;100117.78;;;22.54;30.45
8637;BME280;4356;49.068;8.658;2023-04-10T12:04:29;100108.47;;;22.55;30.42
8637;BME280;4356;49.068;8.658;2023-04-10T12:06:56;100109.44;;;22.60;30.37
8637;BME280;4356;49.068;8.658;2023-04-10T12:09:22;100095.97;;;22.59;30.23
8637;BME280;4356;49.068;8.658;2023-04-10T12:11:53;100096.31;;;22.62;30.04
8637;BME280;4356;49.068;8.658;2023-04-10T12:14:20;100088.69;;;22.64;30.16
8637;BME280;4356;49.068;8.658;2023-04-10T12:16:50;100094.53;;;22.68;30.17
8637;BME280;4356;49.068;8.658;2023-04-10T12:19:17;100072.25;;;22.64;30.33
8637;BME280;4356;49.068;8.658;2023-04-10T12:21:44;100070.91;;;22.67;29.96
8637;BME280;4356;49.068;8.658;2023-04-10T12:24:10;100068.53;;;22.70;29.91
8637;BME280;4356;49.068;8.658;2023-04-10T12:26:36;100073.88;;;22.77;30.18
8637;BME280;4356;49.068;8.658;2023-04-10T12:29:03;100068.88;;;22.74;29.96
8637;BME280;4356;49.068;8.658;2023-04-10T12:31:35;100081.94;;;22.83;30.23
8637;BME280;4356;49.068;8.658;2023-04-10T12:34:02;100064.91;;;22.81;30.16
8637;BME280;4356;49.068;8.658;2023-04-10T12:36:30;100044.78;;;22.76;30.15
8637;BME280;4356;49.068;8.658;2023-04-10T12:38:59;100061.50;;;22.91;30.15
8637;BME280;4356;49.068;8.658;2023-04-10T12:41:29;100047.13;;;22.84;30.04
8637;BME280;4356;49.068;8.658;2023-04-10T12:44:10;100059.38;;;22.93;29.90
8637;BME280;4356;49.068;8.658;2023-04-10T12:46:36;100055.06;;;22.97;29.87
8637;BME280;4356;49.068;8.658;2023-04-10T12:49:22;100048.00;;;23.01;29.90
8637;BME280;4356;49.068;8.658;2023-04-10T12:51:52;100039.78;;;23.01;29.89
8637;BME280;4356;49.068;8.658;2023-04-10T12:54:32;100044.19;;;23.02;29.42
8637;BME280;4356;49.068;8.658;2023-04-10T12:56:58;100046.16;;;23.06;29.73
8637;BME280;4356;49.068;8.658;2023-04-10T12:59:25;100042.09;;;23.09;29.70
8637;BME280;4356;49.068;8.658;2023-04-10T13:01:52;100037.44;;;23.09;29.73
8637;BME280;4356;49.068;8.658;2023-04-10T13:04:17;100028.72;;;23.12;29.71
8637;BME280;4356;49.068;8.658;2023-04-10T13:06:47;100035.63;;;23.15;29.66
8637;BME280;4356;49.068;8.658;2023-04-10T13:09:14;100028.72;;;23.12;29.56
8637;BME280;4356;49.068;8.658;2023-04-10T13:11:41;100022.97;;;23.14;29.76
8637;BME280;4356;49.068;8.658;2023-04-10T13:14:07;100018.66;;;23.18;29.58
8637;BME280;4356;49.068;8.658;2023-04-10T13:16:33;100025.84;;;23.19;29.65
8637;BME280;4356;49.068;8.658;2023-04-10T13:19:00;100021.75;;;23.21;29.45
8637;BME280;4356;49.068;8.658;2023-04-10T13:21:25;100009.94;;;23.21;29.48
8637;BME280;4356;49.068;8.658;2023-04-10T13:23:55;100012.19;;;23.24;29.48
8637;BME280;4356;49.068;8.658;2023-04-10T13:26:22;100006.97;;;23.22;29.48
8637;BME280;4356;49.068;8.658;2023-04-10T13:28:47;100001.22;;;23.24;29.67
8637;BME280;4356;49.068;8.658;2023-04-10T13:31:13;99998.81;;;23.27;29.50
8637;BME280;4356;49.068;8.658;2023-04-10T13:33:42;99990.53;;;23.22;29.51
8637;BME280;4356;49.068;8.658;2023-04-10T13:36:10;99971.47;;;23.16;29.45
8637;BME280;4356;49.068;8.658;2023-04-10T13:38:36;99990.38;;;23.29;29.58
8637;BME280;4356;49.068;8.658;2023-04-10T13:41:01;99985.94;;;23.28;29.46
8637;BME280;4356;49.068;8.658;2023-04-10T13:43:27;99985.94;;;23.28;29.41
8637;BME280;4356;49.068;8.658;2023-04-10T13:45:52;99982.13;;;23.29;29.51
8637;BME280;4356;49.068;8.658;2023-04-10T13:48:18;99963.16;;;23.27;29.42